sensor_id;sensor_type;location;lat;lon;timestamp;P1;durP1;ratioP1;P2;durP2;ratioP2
51852;SDS011;37894;53.172;6.598;2023-02-28T00:00:30;11.13;;;6.15;;
51852;SDS011;37894;53.172;6.598;2023-02-28T00:02:56;17.15;;;5.95;;
51852;SDS011;37894;53.172;6.598;2023-02-28T00:05:23;9.70;;;4.97;;
51852;SDS011;37894;53.172;6.598;2023-02-28T00:07:50;11.82;;;5.35;;
51852;SDS011;37894;53.172;6.598;2023-02-28T00:10:18;11.13;;;5.55;;
51852;SDS011;37894;53.172;6.598;2023-02-28T00:12:52;9.80;;;5.75;;
51852;SDS011;37894;53.172;6.598;2023-02-28T00:15:22;10.23;;;5.72;;
51852;SDS011;37894;53.172;6.598;2023-02-28T00:17:48;13.10;;;6.00;;
51852;SDS011;37894;53.172;6.598;2023-02-28T00:20:14;12.48;;;6.18;;
51852;SDS011;37894;53.172;6.598;2023-02-28T00:22:41;15.43;;;5.85;;
51852;SDS011;37894;53.172;6.598;2023-02-28T00:25:09;8.18;;;5.22;;
51852;SDS011;37894;53.172;6.598;2023-02-28T00:27:36;8.07;;;5.47;;
51852;SDS011;37894;53.172;6.598;2023-02-28T00:30:04;12.07;;;5.70;;
51852;SDS011;37894;53.172;6.598;2023-02-28T00:32:32;14.25;;;5.47;;
51852;SDS011;37894;53.172;6.598;2023-02-28T00:34:57;13.45;;;5.93;;
51852;SDS011;37894;53.172;6.598;2023-02-28T00:37:23;11.07;;;5.95;;
51852;SDS011;37894;53.172;6.598;2023-02-28T00:39:49;13.82;;;5.40;;
51852;SDS011;37894;53.172;6.598;2023-02-28T00:42:14;10.43;;;5.90;;
51852;SDS011;37894;53.172;6.598;2023-02-28T00:44:40;9.70;;;5.28;;
51852;SDS011;37894;53.172;6.598;2023-02-28T00:47:06;15.82;;;6.00;;
51852;SDS011;37894;53.172;6.598;2023-02-28T00:49:32;11.38;;;5.82;;
51852;SDS011;37894;53.172;6.598;2023-02-28T00:51:58;11.75;;;5.90;;
51852;SDS011;37894;53.172;6.598;2023-02-28T00:54:24;11.60;;;6.10;;
51852;SDS011;37894;53.172;6.598;2023-02-28T00:56:49;13.80;;;6.68;;
51852;SDS011;37894;53.172;6.598;2023-02-28T00:59:16;11.45;;;6.43;;
51852;SDS011;37894;53.172;6.598;2023-02-28T01:01:43;11.30;;;6.22;;
51852;SDS011;37894;53.172;6.598;2023-02-28T01:04:10;14.60;;;6.85;;
51852;SDS011;37894;53.172;6.598;2023-02-28T01:06:36;13.00;;;6.82;;
51852;SDS011;37894;53.172;6.598;2023-02-28T01:09:02;11.52;;;6.55;;
51852;SDS011;37894;53.172;6.598;2023-02-28T01:11:29;10.07;;;6.00;;
51852;SDS011;37894;53.172;6.598;2023-02-28T01:13:55;12.80;;;7.82;;
51852;SDS011;37894;53.172;6.598;2023-02-28T01:16:21;13.95;;;6.68;;
51852;SDS011;37894;53.172;6.598;2023-02-28T01:18:47;13.98;;;7.20;;
51852;SDS011;37894;53.172;6.598;2023-02-28T01:21:14;12.88;;;6.65;;
51852;SDS011;37894;53.172;6.598;2023-02-28T01:23:42;11.32;;;6.35;;
51852;SDS011;37894;53.172;6.598;2023-02-28T01:26:10;14.75;;;7.05;;
51852;SDS011;37894;53.172;6.598;2023-02-28T01:28:37;13.20;;;7.05;;
51852;SDS011;37894;53.172;6.598;2023-02-28T01:31:04;12.50;;;7.00;;
51852;SDS011;37894;53.172;6.598;2023-02-28T01:33:30;15.88;;;6.78;;
51852;SDS011;37894;53.172;6.598;2023-02-28T01:36:03;12.32;;;6.85;;
51852;SDS011;37894;53.172;6.598;2023-02-28T01:38:31;18.88;;;7.35;;
51852;SDS011;37894;53.172;6.598;2023-02-28T01:40:57;16.02;;;6.72;;
51852;SDS011;37894;53.172;6.598;2023-02-28T01:43:30;13.23;;;7.10;;
51852;SDS011;37894;53.172;6.598;2023-02-28T01:45:58;14.30;;;7.30;;
51852;SDS011;37894;53.172;6.598;2023-02-28T01:48:34;12.05;;;7.05;;
51852;SDS011;37894;53.172;6.598;2023-02-28T01:51:08;13.73;;;7.57;;
51852;SDS011;37894;53.172;6.598;2023-02-28T01:53:45;13.02;;;7.50;;
51852;SDS011;37894;53.172;6.598;2023-02-28T01:56:16;13.77;;;7.32;;
51852;SDS011;37894;53.172;6.598;2023-02-28T01:58:49;15.90;;;7.53;;
51852;SDS011;37894;53.172;6.598;2023-02-28T02:01:17;16.95;;;8.88;;
51852;SDS011;37894;53.172;6.598;2023-02-28T02:04:04;16.77;;;7.53;;
51852;SDS011;37894;53.172;6.598;2023-02-28T02:06:33;13.23;;;6.93;;
51852;SDS011;37894;53.172;6.598;2023-02-28T02:09:02;16.15;;;7.63;;
51852;SDS011;37894;53.172;6.598;2023-02-28T02:11:28;13.00;;;6.90;;
51852;SDS011;37894;53.172;6.598;2023-02-28T02:19:03;16.02;;;7.43;;
51852;SDS011;37894;53.172;6.598;2023-02-28T02:21:50;14.13;;;7.05;;
51852;SDS011;37894;53.172;6.598;2023-02-28T02:35:38;17.67;;;8.40;;
51852;SDS011;37894;53.172;6.598;2023-02-28T02:41:11;15.63;;;8.95;;
51852;SDS011;37894;53.172;6.598;2023-02-28T02:44:06;15.05;;;8.25;;
51852;SDS011;37894;53.172;6.598;2023-02-28T02:46:37;18.75;;;9.10;;
51852;SDS011;37894;53.172;6.598;2023-02-28T02:49:08;19.58;;;9.38;;
51852;SDS011;37894;53.172;6.598;2023-02-28T02:51:38;15.85;;;9.43;;
51852;SDS011;37894;53.172;6.598;2023-02-28T02:56:37;21.00;;;9.82;;
51852;SDS011;37894;53.172;6.598;2023-02-28T02:59:08;20.52;;;10.93;;
51852;SDS011;37894;53.172;6.598;2023-02-28T03:01:36;21.35;;;11.32;;
51852;SDS011;37894;53.172;6.598;2023-02-28T03:04:07;16.48;;;10.48;;
51852;SDS011;37894;53.172;6.598;2023-02-28T03:06:41;22.05;;;11.20;;
51852;SDS011;37894;53.172;6.598;2023-02-28T03:09:07;18.75;;;12.10;;
51852;SDS011;37894;53.172;6.598;2023-02-28T03:11:34;16.50;;;10.43;;
51852;SDS011;37894;53.172;6.598;2023-02-28T03:25:17;20.48;;;10.40;;
51852;SDS011;37894;53.172;6.598;2023-02-28T03:27:46;21.55;;;9.95;;
51852;SDS011;37894;53.172;6.598;2023-02-28T03:32:58;18.00;;;9.35;;
51852;SDS011;37894;53.172;6.598;2023-02-28T03:35:54;19.90;;;10.20;;
51852;SDS011;37894;53.172;6.598;2023-02-28T03:38:28;15.65;;;9.48;;
51852;SDS011;37894;53.172;6.598;2023-02-28T03:43:57;18.13;;;9.20;;
51852;SDS011;37894;53.172;6.598;2023-02-28T03:46:41;22.48;;;10.55;;
51852;SDS011;37894;53.172;6.598;2023-02-28T03:49:14;19.45;;;9.35;;
51852;SDS011;37894;53.172;6.598;2023-02-28T03:51:45;17.50;;;9.98;;
51852;SDS011;37894;53.172;6.598;2023-02-28T03:54:13;21.92;;;9.20;;
51852;SDS011;37894;53.172;6.598;2023-02-28T03:56:53;20.23;;;10.27;;
51852;SDS011;37894;53.172;6.598;2023-02-28T03:59:52;23.13;;;11.00;;
51852;SDS011;37894;53.172;6.598;2023-02-28T04:04:58;15.13;;;9.57;;
51852;SDS011;37894;53.172;6.598;2023-02-28T04:07:25;16.77;;;9.27;;
51852;SDS011;37894;53.172;6.598;2023-02-28T04:09:54;16.90;;;10.02;;
51852;SDS011;37894;53.172;6.598;2023-02-28T04:12:20;17.23;;;8.52;;
51852;SDS011;37894;53.172;6.598;2023-02-28T04:14:48;15.35;;;8.60;;
51852;SDS011;37894;53.172;6.598;2023-02-28T04:17:14;17.73;;;9.55;;
51852;SDS011;37894;53.172;6.598;2023-02-28T04:19:40;14.30;;;8.23;;
51852;SDS011;37894;53.172;6.598;2023-02-28T04:22:07;15.85;;;8.07;;
51852;SDS011;37894;53.172;6.598;2023-02-28T04:24:33;14.30;;;8.90;;
51852;SDS011;37894;53.172;6.598;2023-02-28T04:26:59;18.73;;;8.57;;
51852;SDS011;37894;53.172;6.598;2023-02-28T04:29:35;14.68;;;8.00;;
51852;SDS011;37894;53.172;6.598;2023-02-28T04:32:01;13.43;;;7.40;;
51852;SDS011;37894;53.172;6.598;2023-02-28T04:34:27;11.30;;;7.10;;
51852;SDS011;37894;53.172;6.598;2023-02-28T04:36:55;14.32;;;7.80;;
51852;SDS011;37894;53.172;6.598;2023-02-28T04:39:22;16.17;;;8.05;;
51852;SDS011;37894;53.172;6.598;2023-02-28T04:41:49;12.70;;;7.50;;
51852;SDS011;37894;53.172;6.598;2023-02-28T04:44:15;16.33;;;7.72;;
51852;SDS011;37894;53.172;6.598;2023-02-28T04:46:42;16.98;;;7.78;;
51852;SDS011;37894;53.172;6.598;2023-02-28T04:49:09;12.68;;;7.53;;
51852;SDS011;37894;53.172;6.598;2023-02-28T04:51:36;17.13;;;8.10;;
51852;SDS011;37894;53.172;6.598;2023-02-28T04:54:02;16.05;;;7.45;;
51852;SDS011;37894;53.172;6.598;2023-02-28T04:56:28;13.80;;;7.85;;
51852;SDS011;37894;53.172;6.598;2023-02-28T04:58:54;14.02;;;7.78;;
51852;SDS011;37894;53.172;6.598;2023-02-28T05:01:24;14.50;;;7.60;;
51852;SDS011;37894;53.172;6.598;2023-02-28T05:06:19;16.10;;;8.00;;
51852;SDS011;37894;53.172;6.598;2023-02-28T05:08:46;16.70;;;8.02;;
51852;SDS011;37894;53.172;6.598;2023-02-28T05:11:22;18.25;;;9.02;;
51852;SDS011;37894;53.172;6.598;2023-02-28T05:14:00;16.60;;;8.77;;
51852;SDS011;37894;53.172;6.598;2023-02-28T05:16:27;21.50;;;9.48;;
51852;SDS011;37894;53.172;6.598;2023-02-28T05:18:53;22.58;;;9.65;;
51852;SDS011;37894;53.172;6.598;2023-02-28T05:23:49;18.52;;;9.18;;
51852;SDS011;37894;53.172;6.598;2023-02-28T05:26:15;20.38;;;10.00;;
51852;SDS011;37894;53.172;6.598;2023-02-28T05:28:40;17.48;;;9.32;;
51852;SDS011;37894;53.172;6.598;2023-02-28T05:31:07;18.98;;;9.57;;
51852;SDS011;37894;53.172;6.598;2023-02-28T05:33:35;21.38;;;9.35;;
51852;SDS011;37894;53.172;6.598;2023-02-28T05:36:01;20.88;;;10.02;;
51852;SDS011;37894;53.172;6.598;2023-02-28T05:38:27;23.67;;;10.32;;
51852;SDS011;37894;53.172;6.598;2023-02-28T05:40:52;21.17;;;10.05;;
51852;SDS011;37894;53.172;6.598;2023-02-28T05:43:18;25.42;;;9.90;;
51852;SDS011;37894;53.172;6.598;2023-02-28T05:45:44;20.05;;;10.88;;
51852;SDS011;37894;53.172;6.598;2023-02-28T05:48:09;21.38;;;10.55;;
51852;SDS011;37894;53.172;6.598;2023-02-28T05:50:35;22.65;;;12.07;;
51852;SDS011;37894;53.172;6.598;2023-02-28T05:53:01;20.15;;;10.02;;
51852;SDS011;37894;53.172;6.598;2023-02-28T05:55:27;22.77;;;10.57;;
51852;SDS011;37894;53.172;6.598;2023-02-28T05:57:53;25.67;;;11.70;;
51852;SDS011;37894;53.172;6.598;2023-02-28T06:00:19;20.88;;;10.73;;
51852;SDS011;37894;53.172;6.598;2023-02-28T06:02:45;24.58;;;10.38;;
51852;SDS011;37894;53.172;6.598;2023-02-28T06:05:15;29.52;;;12.70;;
51852;SDS011;37894;53.172;6.598;2023-02-28T06:07:42;26.10;;;12.55;;
51852;SDS011;37894;53.172;6.598;2023-02-28T06:10:09;25.45;;;12.65;;
51852;SDS011;37894;53.172;6.598;2023-02-28T06:12:36;22.23;;;11.75;;
51852;SDS011;37894;53.172;6.598;2023-02-28T06:15:03;21.75;;;12.23;;
51852;SDS011;37894;53.172;6.598;2023-02-28T06:17:29;22.05;;;11.93;;
51852;SDS011;37894;53.172;6.598;2023-02-28T06:19:54;27.52;;;12.93;;
51852;SDS011;37894;53.172;6.598;2023-02-28T06:22:20;25.67;;;13.40;;
51852;SDS011;37894;53.172;6.598;2023-02-28T06:24:46;28.05;;;13.13;;
51852;SDS011;37894;53.172;6.598;2023-02-28T06:27:12;24.02;;;13.43;;
51852;SDS011;37894;53.172;6.598;2023-02-28T06:29:38;24.15;;;12.70;;
51852;SDS011;37894;53.172;6.598;2023-02-28T06:32:05;25.35;;;12.63;;
51852;SDS011;37894;53.172;6.598;2023-02-28T06:34:31;26.67;;;12.95;;
51852;SDS011;37894;53.172;6.598;2023-02-28T06:36:58;22.77;;;12.68;;
51852;SDS011;37894;53.172;6.598;2023-02-28T06:39:28;22.17;;;12.05;;
51852;SDS011;37894;53.172;6.598;2023-02-28T06:41:54;24.65;;;11.73;;
51852;SDS011;37894;53.172;6.598;2023-02-28T06:44:20;26.52;;;12.75;;
51852;SDS011;37894;53.172;6.598;2023-02-28T06:46:47;24.65;;;12.50;;
51852;SDS011;37894;53.172;6.598;2023-02-28T06:49:12;27.50;;;13.90;;
51852;SDS011;37894;53.172;6.598;2023-02-28T06:51:39;24.15;;;11.88;;
51852;SDS011;37894;53.172;6.598;2023-02-28T06:54:06;25.13;;;12.50;;
51852;SDS011;37894;53.172;6.598;2023-02-28T06:56:35;23.80;;;12.75;;
51852;SDS011;37894;53.172;6.598;2023-02-28T06:59:01;25.67;;;13.45;;
51852;SDS011;37894;53.172;6.598;2023-02-28T07:01:28;28.55;;;14.43;;
51852;SDS011;37894;53.172;6.598;2023-02-28T07:03:54;22.90;;;13.35;;
51852;SDS011;37894;53.172;6.598;2023-02-28T07:06:21;23.35;;;13.45;;
51852;SDS011;37894;53.172;6.598;2023-02-28T07:08:50;28.10;;;14.43;;
51852;SDS011;37894;53.172;6.598;2023-02-28T07:11:17;27.08;;;12.93;;
51852;SDS011;37894;53.172;6.598;2023-02-28T07:13:44;25.15;;;14.20;;
51852;SDS011;37894;53.172;6.598;2023-02-28T07:16:10;26.75;;;15.00;;
51852;SDS011;37894;53.172;6.598;2023-02-28T07:18:36;26.23;;;14.55;;
51852;SDS011;37894;53.172;6.598;2023-02-28T07:21:03;25.77;;;13.35;;
51852;SDS011;37894;53.172;6.598;2023-02-28T07:23:30;29.13;;;14.55;;
51852;SDS011;37894;53.172;6.598;2023-02-28T07:25:56;32.95;;;15.02;;
51852;SDS011;37894;53.172;6.598;2023-02-28T07:28:22;29.00;;;14.25;;
51852;SDS011;37894;53.172;6.598;2023-02-28T07:30:48;30.83;;;15.77;;
51852;SDS011;37894;53.172;6.598;2023-02-28T07:33:14;28.75;;;15.00;;
51852;SDS011;37894;53.172;6.598;2023-02-28T07:35:40;27.92;;;15.60;;
51852;SDS011;37894;53.172;6.598;2023-02-28T07:38:06;31.33;;;16.17;;
51852;SDS011;37894;53.172;6.598;2023-02-28T07:40:33;25.40;;;14.75;;
51852;SDS011;37894;53.172;6.598;2023-02-28T07:42:59;27.85;;;15.60;;
51852;SDS011;37894;53.172;6.598;2023-02-28T07:45:26;33.42;;;15.38;;
51852;SDS011;37894;53.172;6.598;2023-02-28T07:47:54;26.23;;;15.63;;
51852;SDS011;37894;53.172;6.598;2023-02-28T07:50:20;28.25;;;14.40;;
51852;SDS011;37894;53.172;6.598;2023-02-28T07:52:46;28.42;;;16.02;;
51852;SDS011;37894;53.172;6.598;2023-02-28T07:55:12;29.25;;;15.20;;
51852;SDS011;37894;53.172;6.598;2023-02-28T07:57:38;32.13;;;15.60;;
51852;SDS011;37894;53.172;6.598;2023-02-28T08:00:06;29.17;;;15.50;;
51852;SDS011;37894;53.172;6.598;2023-02-28T08:02:34;34.88;;;16.30;;
51852;SDS011;37894;53.172;6.598;2023-02-28T08:05:00;32.20;;;16.10;;
51852;SDS011;37894;53.172;6.598;2023-02-28T08:07:26;27.38;;;15.45;;
51852;SDS011;37894;53.172;6.598;2023-02-28T08:09:52;26.00;;;13.82;;
51852;SDS011;37894;53.172;6.598;2023-02-28T08:12:19;27.02;;;13.70;;
51852;SDS011;37894;53.172;6.598;2023-02-28T08:14:45;23.55;;;13.18;;
51852;SDS011;37894;53.172;6.598;2023-02-28T08:17:11;26.27;;;13.07;;
51852;SDS011;37894;53.172;6.598;2023-02-28T08:19:37;25.05;;;12.70;;
51852;SDS011;37894;53.172;6.598;2023-02-28T08:22:03;26.67;;;12.82;;
51852;SDS011;37894;53.172;6.598;2023-02-28T08:24:28;24.02;;;14.13;;
51852;SDS011;37894;53.172;6.598;2023-02-28T08:26:54;23.75;;;13.82;;
51852;SDS011;37894;53.172;6.598;2023-02-28T08:29:20;25.80;;;14.35;;
51852;SDS011;37894;53.172;6.598;2023-02-28T08:31:46;26.58;;;14.40;;
51852;SDS011;37894;53.172;6.598;2023-02-28T08:34:13;27.35;;;13.70;;
51852;SDS011;37894;53.172;6.598;2023-02-28T08:36:40;26.65;;;14.35;;
51852;SDS011;37894;53.172;6.598;2023-02-28T08:39:07;26.70;;;14.40;;
51852;SDS011;37894;53.172;6.598;2023-02-28T08:41:34;23.30;;;13.45;;
51852;SDS011;37894;53.172;6.598;2023-02-28T08:43:59;28.52;;;12.98;;
51852;SDS011;37894;53.172;6.598;2023-02-28T08:46:26;23.58;;;13.02;;
51852;SDS011;37894;53.172;6.598;2023-02-28T08:48:56;21.23;;;12.70;;
51852;SDS011;37894;53.172;6.598;2023-02-28T08:51:25;20.60;;;12.63;;
51852;SDS011;37894;53.172;6.598;2023-02-28T08:53:52;23.17;;;12.90;;
51852;SDS011;37894;53.172;6.598;2023-02-28T08:56:22;21.98;;;13.20;;
51852;SDS011;37894;53.172;6.598;2023-02-28T08:58:49;24.08;;;13.20;;
51852;SDS011;37894;53.172;6.598;2023-02-28T09:01:16;22.98;;;13.57;;
51852;SDS011;37894;53.172;6.598;2023-02-28T09:03:43;22.00;;;13.40;;
51852;SDS011;37894;53.172;6.598;2023-02-28T09:06:11;23.70;;;14.35;;
51852;SDS011;37894;53.172;6.598;2023-02-28T09:08:36;22.98;;;13.45;;
51852;SDS011;37894;53.172;6.598;2023-02-28T09:11:03;25.27;;;14.68;;
51852;SDS011;37894;53.172;6.598;2023-02-28T09:13:29;25.77;;;13.70;;
51852;SDS011;37894;53.172;6.598;2023-02-28T09:15:59;20.55;;;12.57;;
51852;SDS011;37894;53.172;6.598;2023-02-28T09:18:25;20.08;;;12.38;;
51852;SDS011;37894;53.172;6.598;2023-02-28T09:20:52;21.48;;;13.88;;
51852;SDS011;37894;53.172;6.598;2023-02-28T09:23:18;22.30;;;12.80;;
51852;SDS011;37894;53.172;6.598;2023-02-28T09:25:51;23.88;;;13.70;;
51852;SDS011;37894;53.172;6.598;2023-02-28T09:28:18;22.55;;;12.82;;
51852;SDS011;37894;53.172;6.598;2023-02-28T09:30:45;18.27;;;11.77;;
51852;SDS011;37894;53.172;6.598;2023-02-28T09:33:12;20.73;;;12.38;;
51852;SDS011;37894;53.172;6.598;2023-02-28T09:35:38;19.40;;;11.88;;
51852;SDS011;37894;53.172;6.598;2023-02-28T09:38:04;21.05;;;12.90;;
51852;SDS011;37894;53.172;6.598;2023-02-28T09:40:34;18.48;;;12.80;;
51852;SDS011;37894;53.172;6.598;2023-02-28T09:43:02;24.13;;;13.45;;
51852;SDS011;37894;53.172;6.598;2023-02-28T09:48:09;20.02;;;12.00;;
51852;SDS011;37894;53.172;6.598;2023-02-28T09:50:50;17.83;;;11.60;;
51852;SDS011;37894;53.172;6.598;2023-02-28T09:53:28;20.17;;;12.00;;
51852;SDS011;37894;53.172;6.598;2023-02-28T09:56:04;22.45;;;11.85;;
51852;SDS011;37894;53.172;6.598;2023-02-28T10:02:46;20.33;;;12.63;;
51852;SDS011;37894;53.172;6.598;2023-02-28T10:07:22;16.98;;;11.60;;
51852;SDS011;37894;53.172;6.598;2023-02-28T10:09:54;17.70;;;10.50;;
51852;SDS011;37894;53.172;6.598;2023-02-28T10:12:23;15.90;;;10.05;;
51852;SDS011;37894;53.172;6.598;2023-02-28T10:14:51;19.63;;;10.65;;
51852;SDS011;37894;53.172;6.598;2023-02-28T10:17:20;17.23;;;10.57;;
51852;SDS011;37894;53.172;6.598;2023-02-28T10:19:58;20.10;;;11.52;;
51852;SDS011;37894;53.172;6.598;2023-02-28T10:22:32;19.13;;;10.52;;
51852;SDS011;37894;53.172;6.598;2023-02-28T10:25:20;15.85;;;9.45;;
51852;SDS011;37894;53.172;6.598;2023-02-28T10:27:48;14.00;;;9.10;;
51852;SDS011;37894;53.172;6.598;2023-02-28T10:30:17;13.02;;;9.38;;
51852;SDS011;37894;53.172;6.598;2023-02-28T10:32:46;17.15;;;8.95;;
51852;SDS011;37894;53.172;6.598;2023-02-28T10:37:47;15.50;;;8.60;;
51852;SDS011;37894;53.172;6.598;2023-02-28T10:43:45;12.77;;;8.00;;
51852;SDS011;37894;53.172;6.598;2023-02-28T10:45:51;11.43;;;7.22;;
51852;SDS011;37894;53.172;6.598;2023-02-28T10:48:41;9.88;;;4.68;;
51852;SDS011;37894;53.172;6.598;2023-02-28T10:51:34;10.15;;;6.47;;
51852;SDS011;37894;53.172;6.598;2023-02-28T10:54:03;8.82;;;5.60;;
51852;SDS011;37894;53.172;6.598;2023-02-28T10:56:30;12.05;;;5.80;;
51852;SDS011;37894;53.172;6.598;2023-02-28T10:59:30;6.63;;;4.20;;
51852;SDS011;37894;53.172;6.598;2023-02-28T11:01:52;9.30;;;4.85;;
51852;SDS011;37894;53.172;6.598;2023-02-28T11:04:19;9.90;;;5.18;;
51852;SDS011;37894;53.172;6.598;2023-02-28T11:06:51;10.30;;;4.60;;
51852;SDS011;37894;53.172;6.598;2023-02-28T11:12:04;6.47;;;3.75;;
51852;SDS011;37894;53.172;6.598;2023-02-28T11:14:36;6.10;;;3.95;;
51852;SDS011;37894;53.172;6.598;2023-02-28T11:17:23;7.10;;;3.67;;
51852;SDS011;37894;53.172;6.598;2023-02-28T11:19:53;8.35;;;4.20;;
51852;SDS011;37894;53.172;6.598;2023-02-28T11:22:31;7.28;;;3.70;;
51852;SDS011;37894;53.172;6.598;2023-02-28T11:25:06;8.88;;;4.10;;
51852;SDS011;37894;53.172;6.598;2023-02-28T11:30:39;9.25;;;4.50;;
51852;SDS011;37894;53.172;6.598;2023-02-28T11:35:57;8.95;;;4.03;;
51852;SDS011;37894;53.172;6.598;2023-02-28T11:38:26;6.82;;;4.30;;
51852;SDS011;37894;53.172;6.598;2023-02-28T11:43:33;6.53;;;4.57;;
51852;SDS011;37894;53.172;6.598;2023-02-28T11:46:14;9.60;;;3.70;;
51852;SDS011;37894;53.172;6.598;2023-02-28T11:49:20;8.25;;;4.40;;
51852;SDS011;37894;53.172;6.598;2023-02-28T11:57:44;5.97;;;3.65;;
51852;SDS011;37894;53.172;6.598;2023-02-28T12:00:26;5.70;;;3.72;;
51852;SDS011;37894;53.172;6.598;2023-02-28T12:03:22;5.75;;;3.25;;
51852;SDS011;37894;53.172;6.598;2023-02-28T12:11:45;5.93;;;3.83;;
51852;SDS011;37894;53.172;6.598;2023-02-28T12:22:25;6.78;;;4.43;;
51852;SDS011;37894;53.172;6.598;2023-02-28T12:27:32;5.72;;;3.80;;
51852;SDS011;37894;53.172;6.598;2023-02-28T12:32:49;6.43;;;4.32;;
51852;SDS011;37894;53.172;6.598;2023-02-28T12:35:23;8.38;;;4.32;;
51852;SDS011;37894;53.172;6.598;2023-02-28T12:38:08;7.90;;;4.72;;
51852;SDS011;37894;53.172;6.598;2023-02-28T12:40:54;7.63;;;4.70;;
51852;SDS011;37894;53.172;6.598;2023-02-28T12:43:27;7.57;;;5.13;;
51852;SDS011;37894;53.172;6.598;2023-02-28T12:48:59;9.27;;;4.95;;
51852;SDS011;37894;53.172;6.598;2023-02-28T12:51:30;13.05;;;5.00;;
51852;SDS011;37894;53.172;6.598;2023-02-28T12:59:14;12.32;;;6.55;;
51852;SDS011;37894;53.172;6.598;2023-02-28T13:10:08;14.02;;;6.22;;
51852;SDS011;37894;53.172;6.598;2023-02-28T13:12:35;7.97;;;5.45;;
51852;SDS011;37894;53.172;6.598;2023-02-28T13:15:08;9.27;;;6.13;;
51852;SDS011;37894;53.172;6.598;2023-02-28T13:17:50;10.55;;;5.65;;
51852;SDS011;37894;53.172;6.598;2023-02-28T13:22:49;10.32;;;5.57;;
51852;SDS011;37894;53.172;6.598;2023-02-28T13:27:58;8.27;;;5.03;;
51852;SDS011;37894;53.172;6.598;2023-02-28T13:33:31;11.52;;;5.90;;
51852;SDS011;37894;53.172;6.598;2023-02-28T13:38:48;7.93;;;5.50;;
51852;SDS011;37894;53.172;6.598;2023-02-28T13:46:36;9.15;;;5.45;;
51852;SDS011;37894;53.172;6.598;2023-02-28T14:03:30;9.05;;;6.20;;
51852;SDS011;37894;53.172;6.598;2023-02-28T14:06:46;10.48;;;6.25;;
51852;SDS011;37894;53.172;6.598;2023-02-28T14:08:55;11.02;;;6.78;;
51852;SDS011;37894;53.172;6.598;2023-02-28T14:11:49;9.95;;;6.25;;
51852;SDS011;37894;53.172;6.598;2023-02-28T14:17:05;11.70;;;6.25;;
51852;SDS011;37894;53.172;6.598;2023-02-28T14:19:35;9.13;;;5.95;;
51852;SDS011;37894;53.172;6.598;2023-02-28T14:25:10;10.30;;;6.05;;
51852;SDS011;37894;53.172;6.598;2023-02-28T14:27:56;10.43;;;6.47;;
51852;SDS011;37894;53.172;6.598;2023-02-28T14:36:52;9.30;;;6.10;;
51852;SDS011;37894;53.172;6.598;2023-02-28T14:39:20;11.80;;;6.57;;
51852;SDS011;37894;53.172;6.598;2023-02-28T14:41:49;10.65;;;6.38;;
51852;SDS011;37894;53.172;6.598;2023-02-28T14:44:24;10.55;;;6.47;;
51852;SDS011;37894;53.172;6.598;2023-02-28T14:46:54;9.48;;;6.68;;
51852;SDS011;37894;53.172;6.598;2023-02-28T14:52:30;9.80;;;6.45;;
51852;SDS011;37894;53.172;6.598;2023-02-28T14:54:59;10.35;;;6.57;;
51852;SDS011;37894;53.172;6.598;2023-02-28T14:57:39;9.90;;;6.25;;
51852;SDS011;37894;53.172;6.598;2023-02-28T15:00:46;12.02;;;6.75;;
51852;SDS011;37894;53.172;6.598;2023-02-28T15:03:30;8.00;;;5.88;;
51852;SDS011;37894;53.172;6.598;2023-02-28T15:06:15;9.82;;;6.15;;
51852;SDS011;37894;53.172;6.598;2023-02-28T15:08:46;11.57;;;6.80;;
51852;SDS011;37894;53.172;6.598;2023-02-28T15:11:14;9.40;;;5.93;;
51852;SDS011;37894;53.172;6.598;2023-02-28T15:13:47;8.45;;;6.03;;
51852;SDS011;37894;53.172;6.598;2023-02-28T15:21:41;10.45;;;6.97;;
51852;SDS011;37894;53.172;6.598;2023-02-28T15:26:59;10.07;;;6.75;;
51852;SDS011;37894;53.172;6.598;2023-02-28T15:29:30;10.13;;;6.90;;
51852;SDS011;37894;53.172;6.598;2023-02-28T15:32:32;10.93;;;6.90;;
51852;SDS011;37894;53.172;6.598;2023-02-28T15:34:59;10.25;;;6.07;;
51852;SDS011;37894;53.172;6.598;2023-02-28T15:38:15;8.82;;;5.93;;
51852;SDS011;37894;53.172;6.598;2023-02-28T15:40:53;10.05;;;6.32;;
51852;SDS011;37894;53.172;6.598;2023-02-28T15:45:57;11.60;;;6.00;;
51852;SDS011;37894;53.172;6.598;2023-02-28T15:48:29;8.75;;;5.57;;
51852;SDS011;37894;53.172;6.598;2023-02-28T15:53:30;13.00;;;6.88;;
51852;SDS011;37894;53.172;6.598;2023-02-28T15:56:02;11.20;;;7.82;;
51852;SDS011;37894;53.172;6.598;2023-02-28T15:58:32;11.80;;;7.93;;
51852;SDS011;37894;53.172;6.598;2023-02-28T16:01:00;10.30;;;7.00;;
51852;SDS011;37894;53.172;6.598;2023-02-28T16:03:48;10.75;;;7.20;;
51852;SDS011;37894;53.172;6.598;2023-02-28T16:06:22;12.75;;;6.93;;
51852;SDS011;37894;53.172;6.598;2023-02-28T16:08:51;12.20;;;6.43;;
51852;SDS011;37894;53.172;6.598;2023-02-28T16:11:18;9.95;;;6.90;;
51852;SDS011;37894;53.172;6.598;2023-02-28T16:13:46;9.38;;;6.38;;
51852;SDS011;37894;53.172;6.598;2023-02-28T16:16:19;12.65;;;6.93;;
51852;SDS011;37894;53.172;6.598;2023-02-28T16:18:47;12.23;;;8.00;;
51852;SDS011;37894;53.172;6.598;2023-02-28T16:21:31;10.02;;;6.88;;
51852;SDS011;37894;53.172;6.598;2023-02-28T16:23:57;11.65;;;6.95;;
51852;SDS011;37894;53.172;6.598;2023-02-28T16:26:23;12.13;;;7.78;;
51852;SDS011;37894;53.172;6.598;2023-02-28T16:28:50;11.57;;;7.32;;
51852;SDS011;37894;53.172;6.598;2023-02-28T16:31:16;12.07;;;8.00;;
51852;SDS011;37894;53.172;6.598;2023-02-28T16:33:46;13.27;;;7.78;;
51852;SDS011;37894;53.172;6.598;2023-02-28T16:36:20;14.40;;;7.85;;
51852;SDS011;37894;53.172;6.598;2023-02-28T16:38:49;10.30;;;7.85;;
51852;SDS011;37894;53.172;6.598;2023-02-28T16:41:17;13.98;;;7.57;;
51852;SDS011;37894;53.172;6.598;2023-02-28T16:43:46;9.63;;;7.32;;
51852;SDS011;37894;53.172;6.598;2023-02-28T16:46:13;13.05;;;8.00;;
51852;SDS011;37894;53.172;6.598;2023-02-28T16:48:39;10.38;;;7.80;;
51852;SDS011;37894;53.172;6.598;2023-02-28T16:51:06;9.95;;;7.60;;
51852;SDS011;37894;53.172;6.598;2023-02-28T16:53:36;10.80;;;7.67;;
51852;SDS011;37894;53.172;6.598;2023-02-28T16:56:03;13.35;;;7.72;;
51852;SDS011;37894;53.172;6.598;2023-02-28T16:58:29;12.27;;;7.47;;
51852;SDS011;37894;53.172;6.598;2023-02-28T17:00:55;12.90;;;8.15;;
51852;SDS011;37894;53.172;6.598;2023-02-28T17:03:25;13.65;;;8.10;;
51852;SDS011;37894;53.172;6.598;2023-02-28T17:05:52;13.75;;;8.70;;
51852;SDS011;37894;53.172;6.598;2023-02-28T17:08:18;13.25;;;8.30;;
51852;SDS011;37894;53.172;6.598;2023-02-28T17:10:44;14.15;;;8.43;;
51852;SDS011;37894;53.172;6.598;2023-02-28T17:13:10;14.98;;;8.98;;
51852;SDS011;37894;53.172;6.598;2023-02-28T17:15:36;13.73;;;7.80;;
51852;SDS011;37894;53.172;6.598;2023-02-28T17:18:02;14.57;;;8.73;;
51852;SDS011;37894;53.172;6.598;2023-02-28T17:20:29;13.95;;;8.27;;
51852;SDS011;37894;53.172;6.598;2023-02-28T17:22:55;13.00;;;8.25;;
51852;SDS011;37894;53.172;6.598;2023-02-28T17:25:22;16.13;;;9.80;;
51852;SDS011;37894;53.172;6.598;2023-02-28T17:27:48;13.80;;;9.25;;
51852;SDS011;37894;53.172;6.598;2023-02-28T17:32:46;12.45;;;8.77;;
51852;SDS011;37894;53.172;6.598;2023-02-28T17:35:12;14.32;;;9.55;;
51852;SDS011;37894;53.172;6.598;2023-02-28T17:37:38;13.63;;;9.40;;
51852;SDS011;37894;53.172;6.598;2023-02-28T17:40:05;14.90;;;10.38;;
51852;SDS011;37894;53.172;6.598;2023-02-28T17:42:31;16.85;;;11.25;;